sensor_id;sensor_type;location;lat;lon;timestamp;pressure;altitude;pressure_sealevel;temperature;humidity
31346;BME280;21711;49.708;18.568;2023-01-10T00:01:40;96407.13;;;6.26;100.00
31346;BME280;21711;49.708;18.568;2023-01-10T00:04:07;96405.81;;;6.34;100.00
31346;BME280;21711;49.708;18.568;2023-01-10T00:06:34;96404.25;;;6.33;100.00
31346;BME280;21711;49.708;18.568;2023-01-10T00:09:02;96409.47;;;6.43;100.00
31346;BME280;21711;49.708;18.568;2023-01-10T00:11:29;96417.09;;;6.45;100.00
31346;BME280;21711;49.708;18.568;2023-01-10T00:14:16;96416.81;;;6.41;100.00
31346;BME280;21711;49.708;18.568;2023-01-10T00:16:43;96417.63;;;6.42;100.00
31346;BME280;21711;49.708;18.568;2023-01-10T00:19:10;96419.97;;;6.43;100.00
31346;BME280;21711;49.708;18.568;2023-01-10T00:21:37;96417.38;;;6.38;100.00
31346;BME280;21711;49.708;18.568;2023-01-10T00:24:06;96425.00;;;6.35;100.00
31346;BME280;21711;49.708;18.568;2023-01-10T00:26:47;96426.56;;;6.30;100.00
31346;BME280;21711;49.708;18.568;2023-01-10T00:29:26;96424.47;;;6.17;100.00
31346;BME280;21711;49.708;18.568;2023-01-10T00:32:01;96416.06;;;6.20;100.00
31346;BME280;21711;49.708;18.568;2023-01-10T00:34:28;96424.75;;;6.15;100.00
31346;BME280;21711;49.708;18.568;2023-01-10T00:36:57;96421.31;;;6.15;100.00
31346;BME280;21711;49.708;18.568;2023-01-10T00:39:24;96421.59;;;6.03;100.00
31346;BME280;21711;49.708;18.568;2023-01-10T00:41:53;96425.81;;;6.04;100.00
31346;BME280;21711;49.708;18.568;2023-01-10T00:44:39;96427.34;;;5.95;100.00
31346;BME280;21711;49.708;18.568;2023-01-10T00:47:06;96432.34;;;6.01;100.00
31346;BME280;21711;49.708;18.568;2023-01-10T00:49:34;96435.75;;;5.91;100.00
31346;BME280;21711;49.708;18.568;2023-01-10T00:52:01;96435.22;;;5.89;100.00
31346;BME280;21711;49.708;18.568;2023-01-10T00:54:28;96440.75;;;5.88;100.00
31346;BME280;21711;49.708;18.568;2023-01-10T00:56:55;96433.38;;;5.95;100.00
31346;BME280;21711;49.708;18.568;2023-01-10T00:59:23;96439.41;;;6.01;100.00
31346;BME280;21711;49.708;18.568;2023-01-10T01:01:51;96444.19;;;6.04;100.00
31346;BME280;21711;49.708;18.568;2023-01-10T01:04:18;96439.69;;;6.04;100.00
31346;BME280;21711;49.708;18.568;2023-01-10T01:06:46;96443.88;;;5.95;100.00
31346;BME280;21711;49.708;18.568;2023-01-10T01:09:15;96445.72;;;6.00;100.00
31346;BME280;21711;49.708;18.568;2023-01-10T01:11:42;96449.13;;;5.90;100.00
31346;BME280;21711;49.708;18.568;2023-01-10T01:14:09;96454.38;;;5.79;100.00
31346;BME280;21711;49.708;18.568;2023-01-10T01:16:37;96452.50;;;5.70;100.00
31346;BME280;21711;49.708;18.568;2023-01-10T01:19:04;96456.47;;;5.77;100.00
31346;BME280;21711;49.708;18.568;2023-01-10T01:21:32;96455.69;;;5.77;100.00
31346;BME280;21711;49.708;18.568;2023-01-10T01:23:59;96450.44;;;5.72;100.00
31346;BME280;21711;49.708;18.568;2023-01-10T01:26:27;96456.47;;;5.77;100.00
31346;BME280;21711;49.708;18.568;2023-01-10T01:28:55;96453.84;;;5.77;100.00
31346;BME280;21711;49.708;18.568;2023-01-10T01:31:22;96460.94;;;5.82;100.00
31346;BME280;21711;49.708;18.568;2023-01-10T01:33:49;96455.13;;;5.75;100.00
31346;BME280;21711;49.708;18.568;2023-01-10T01:36:17;96453.06;;;5.72;100.00
31346;BME280;21711;49.708;18.568;2023-01-10T01:38:46;96463.81;;;5.75;100.00
31346;BME280;21711;49.708;18.568;2023-01-10T01:41:13;96459.34;;;5.65;100.00
31346;BME280;21711;49.708;18.568;2023-01-10T01:44:06;96462.97;;;5.54;100.00
31346;BME280;21711;49.708;18.568;2023-01-10T01:46:37;96469.81;;;5.60;100.00
31346;BME280;21711;49.708;18.568;2023-01-10T01:49:11;96466.97;;;5.77;100.00
31346;BME280;21711;49.708;18.568;2023-01-10T01:51:41;96461.19;;;5.70;100.00
31346;BME280;21711;49.708;18.568;2023-01-10T01:54:12;96467.97;;;5.61;100.00
31346;BME280;21711;49.708;18.568;2023-01-10T01:56:53;96472.66;;;5.48;100.00
31346;BME280;21711;49.708;18.568;2023-01-10T01:59:29;96459.06;;;5.72;100.00
31346;BME280;21711;49.708;18.568;2023-01-10T02:02:12;96468.78;;;5.56;100.00
31346;BME280;21711;49.708;18.568;2023-01-10T02:05:09;96478.94;;;5.42;100.00
31346;BME280;21711;49.708;18.568;2023-01-10T02:07:43;96471.91;;;5.53;100.00
31346;BME280;21711;49.708;18.568;2023-01-10T02:13:01;96479.78;;;5.69;100.00
31346;BME280;21711;49.708;18.568;2023-01-10T02:15:30;96485.56;;;5.65;100.00
31346;BME280;21711;49.708;18.568;2023-01-10T02:18:00;96484.47;;;5.51;100.00
31346;BME280;21711;49.708;18.568;2023-01-10T02:26:51;96500.97;;;5.41;100.00
31346;BME280;21711;49.708;18.568;2023-01-10T02:41:30;96519.09;;;5.43;100.00
31346;BME280;21711;49.708;18.568;2023-01-10T02:44:08;96512.56;;;5.61;100.00
31346;BME280;21711;49.708;18.568;2023-01-10T02:46:38;96523.28;;;5.44;100.00
31346;BME280;21711;49.708;18.568;2023-01-10T02:49:05;96533.25;;;5.47;100.00
31346;BME280;21711;49.708;18.568;2023-01-10T02:51:33;96534.03;;;5.42;100.00
31346;BME280;21711;49.708;18.568;2023-01-10T03:00:38;96545.06;;;5.49;100.00
31346;BME280;21711;49.708;18.568;2023-01-10T03:03:33;96544.94;;;5.23;100.00
31346;BME280;21711;49.708;18.568;2023-01-10T03:06:30;96547.72;;;5.01;100.00
31346;BME280;21711;49.708;18.568;2023-01-10T03:12:34;96562.53;;;5.23;100.00
31346;BME280;21711;49.708;18.568;2023-01-10T03:15:05;96554.81;;;5.06;100.00
31346;BME280;21711;49.708;18.568;2023-01-10T03:17:35;96562.44;;;5.12;100.00
31346;BME280;21711;49.708;18.568;2023-01-10T03:20:07;96566.31;;;4.99;100.00
31346;BME280;21711;49.708;18.568;2023-01-10T03:22:37;96573.97;;;5.06;100.00
31346;BME280;21711;49.708;18.568;2023-01-10T03:25:06;96575.53;;;5.07;100.00
31346;BME280;21711;49.708;18.568;2023-01-10T03:31:29;96580.97;;;4.95;100.00
31346;BME280;21711;49.708;18.568;2023-01-10T03:33:36;96583.91;;;5.04;100.00
31346;BME280;21711;49.708;18.568;2023-01-10T03:39:22;96593.28;;;4.95;100.00
31346;BME280;21711;49.708;18.568;2023-01-10T03:45:23;96594.13;;;5.06;100.00
31346;BME280;21711;49.708;18.568;2023-01-10T03:47:54;96589.38;;;4.97;100.00
31346;BME280;21711;49.708;18.568;2023-01-10T03:50:25;96599.38;;;5.06;100.00
31346;BME280;21711;49.708;18.568;2023-01-10T03:52:55;96600.22;;;5.17;100.00
31346;BME280;21711;49.708;18.568;2023-01-10T03:55:26;96602.88;;;5.22;100.00
31346;BME280;21711;49.708;18.568;2023-01-10T03:57:54;96608.41;;;5.25;100.00
31346;BME280;21711;49.708;18.568;2023-01-10T04:00:22;96606.03;;;5.24;100.00
31346;BME280;21711;49.708;18.568;2023-01-10T04:02:50;96606.81;;;5.24;100.00
31346;BME280;21711;49.708;18.568;2023-01-10T04:05:17;96612.19;;;5.02;100.00
31346;BME280;21711;49.708;18.568;2023-01-10T04:07:45;96610.09;;;4.99;100.00
31346;BME280;21711;49.708;18.568;2023-01-10T04:10:14;96619.53;;;5.00;100.00
31346;BME280;21711;49.708;18.568;2023-01-10T04:12:41;96608.25;;;4.99;100.00
31346;BME280;21711;49.708;18.568;2023-01-10T04:15:09;96620.84;;;5.03;100.00
31346;BME280;21711;49.708;18.568;2023-01-10T04:17:36;96623.72;;;5.01;100.00
31346;BME280;21711;49.708;18.568;2023-01-10T04:20:04;96630.00;;;5.00;100.00
31346;BME280;21711;49.708;18.568;2023-01-10T04:22:32;96624.25;;;5.03;100.00
31346;BME280;21711;49.708;18.568;2023-01-10T04:24:59;96638.97;;;5.09;100.00
31346;BME280;21711;49.708;18.568;2023-01-10T04:27:26;96639.25;;;5.13;100.00
31346;BME280;21711;49.708;18.568;2023-01-10T04:29:53;96646.91;;;5.20;100.00
31346;BME280;21711;49.708;18.568;2023-01-10T04:32:20;96647.75;;;5.25;100.00
31346;BME280;21711;49.708;18.568;2023-01-10T04:34:48;96645.16;;;5.31;100.00
31346;BME280;21711;49.708;18.568;2023-01-10T04:37:15;96650.69;;;5.39;100.00
31346;BME280;21711;49.708;18.568;2023-01-10T04:39:42;96652.25;;;5.35;100.00
31346;BME280;21711;49.708;18.568;2023-01-10T04:42:10;96661.75;;;5.47;100.00
31346;BME280;21711;49.708;18.568;2023-01-10T04:44:37;96657.81;;;5.44;100.00
31346;BME280;21711;49.708;18.568;2023-01-10T04:47:04;96668.25;;;5.39;100.00
31346;BME280;21711;49.708;18.568;2023-01-10T04:49:32;96669.09;;;5.45;100.00
31346;BME280;21711;49.708;18.568;2023-01-10T04:51:59;96678.00;;;5.44;100.00
31346;BME280;21711;49.708;18.568;2023-01-10T04:54:26;96689.72;;;5.31;100.00
31346;BME280;21711;49.708;18.568;2023-01-10T04:56:53;96691.72;;;5.18;100.00
31346;BME280;21711;49.708;18.568;2023-01-10T04:59:21;96695.19;;;5.24;100.00
31346;BME280;21711;49.708;18.568;2023-01-10T05:01:48;96704.63;;;5.25;100.00
31346;BME280;21711;49.708;18.568;2023-01-10T05:04:16;96706.72;;;5.23;100.00
31346;BME280;21711;49.708;18.568;2023-01-10T05:06:45;96714.41;;;5.35;100.00
31346;BME280;21711;49.708;18.568;2023-01-10T05:09:12;96716.53;;;5.43;100.00
31346;BME280;21711;49.708;18.568;2023-01-10T05:11:40;96711.81;;;5.40;100.00
31346;BME280;21711;49.708;18.568;2023-01-10T05:14:07;96724.63;;;5.36;100.00
31346;BME280;21711;49.708;18.568;2023-01-10T05:16:35;96717.78;;;5.35;100.00
31346;BME280;21711;49.708;18.568;2023-01-10T05:19:02;96719.41;;;5.42;100.00
31346;BME280;21711;49.708;18.568;2023-01-10T05:21:30;96720.59;;;5.23;100.00
31346;BME280;21711;49.708;18.568;2023-01-10T05:23:57;96724.53;;;5.26;100.00
31346;BME280;21711;49.708;18.568;2023-01-10T05:26:24;96734.09;;;5.37;100.00
31346;BME280;21711;49.708;18.568;2023-01-10T05:28:51;96730.44;;;5.44;100.00
31346;BME280;21711;49.708;18.568;2023-01-10T05:31:19;96729.97;;;5.14;100.00
31346;BME280;21711;49.708;18.568;2023-01-10T05:33:48;96737.41;;;5.28;100.00
31346;BME280;21711;49.708;18.568;2023-01-10T05:36:17;96741.63;;;5.34;100.00
31346;BME280;21711;49.708;18.568;2023-01-10T05:38:45;96749.22;;;5.30;100.00
31346;BME280;21711;49.708;18.568;2023-01-10T05:41:13;96749.47;;;5.29;100.00
31346;BME280;21711;49.708;18.568;2023-01-10T05:43:40;96757.25;;;5.18;100.00
31346;BME280;21711;49.708;18.568;2023-01-10T05:46:07;96751.81;;;5.25;100.00
31346;BME280;21711;49.708;18.568;2023-01-10T05:48:35;96763.13;;;5.31;100.00
31346;BME280;21711;49.708;18.568;2023-01-10T05:51:03;96762.63;;;5.34;100.00
31346;BME280;21711;49.708;18.568;2023-01-10T05:53:30;96768.38;;;5.31;100.00
31346;BME280;21711;49.708;18.568;2023-01-10T05:56:00;96765.63;;;5.15;100.00
31346;BME280;21711;49.708;18.568;2023-01-10T05:58:28;96768.38;;;5.31;100.00
31346;BME280;21711;49.708;18.568;2023-01-10T06:00:56;96780.56;;;5.15;100.00
31346;BME280;21711;49.708;18.568;2023-01-10T06:03:24;96782.94;;;5.16;100.00
31346;BME280;21711;49.708;18.568;2023-01-10T06:05:54;96785.41;;;5.28;100.00
31346;BME280;21711;49.708;18.568;2023-01-10T06:08:22;96790.09;;;5.26;100.00
31346;BME280;21711;49.708;18.568;2023-01-10T06:10:50;96790.53;;;5.18;100.00
31346;BME280;21711;49.708;18.568;2023-01-10T06:13:18;96791.38;;;5.23;100.00
31346;BME280;21711;49.708;18.568;2023-01-10T06:15:46;96807.09;;;5.23;100.00
31346;BME280;21711;49.708;18.568;2023-01-10T06:18:13;96810.81;;;5.28;100.00
31346;BME280;21711;49.708;18.568;2023-01-10T06:20:42;96813.78;;;5.09;100.00
31346;BME280;21711;49.708;18.568;2023-01-10T06:23:10;96811.94;;;5.04;100.00
31346;BME280;21711;49.708;18.568;2023-01-10T06:25:38;96812.06;;;4.92;100.00
31346;BME280;21711;49.708;18.568;2023-01-10T06:28:09;96827.16;;;5.07;100.00
31346;BME280;21711;49.708;18.568;2023-01-10T06:30:38;96826.06;;;5.03;100.00
31346;BME280;21711;49.708;18.568;2023-01-10T06:33:09;96827.75;;;5.15;100.00
31346;BME280;21711;49.708;18.568;2023-01-10T06:35:36;96827.03;;;4.97;100.00
31346;BME280;21711;49.708;18.568;2023-01-10T06:38:04;96829.22;;;5.05;100.00
31346;BME280;21711;49.708;18.568;2023-01-10T06:40:31;96831.81;;;5.00;100.00
31346;BME280;21711;49.708;18.568;2023-01-10T06:42:58;96837.53;;;4.97;100.00
31346;BME280;21711;49.708;18.568;2023-01-10T06:45:26;96832.03;;;4.98;100.00
31346;BME280;21711;49.708;18.568;2023-01-10T06:47:53;96843.38;;;5.04;100.00
31346;BME280;21711;49.708;18.568;2023-01-10T06:50:21;96846.44;;;4.96;100.00
31346;BME280;21711;49.708;18.568;2023-01-10T06:52:59;96852.09;;;4.87;100.00
31346;BME280;21711;49.708;18.568;2023-01-10T06:55:28;96857.00;;;4.79;100.00
31346;BME280;21711;49.708;18.568;2023-01-10T06:58:01;96862.72;;;4.76;100.00
31346;BME280;21711;49.708;18.568;2023-01-10T07:00:30;96862.53;;;4.60;100.00
31346;BME280;21711;49.708;18.568;2023-01-10T07:03:00;96869.47;;;4.71;100.00
31346;BME280;21711;49.708;18.568;2023-01-10T07:05:28;96878.63;;;4.69;100.00
31346;BME280;21711;49.708;18.568;2023-01-10T07:07:56;96880.63;;;4.84;100.00
31346;BME280;21711;49.708;18.568;2023-01-10T07:10:25;96877.06;;;4.95;100.00
31346;BME280;21711;49.708;18.568;2023-01-10T07:12:56;96886.16;;;4.87;100.00
31346;BME280;21711;49.708;18.568;2023-01-10T07:15:26;96890.72;;;4.75;100.00
31346;BME280;21711;49.708;18.568;2023-01-10T07:17:56;96899.22;;;4.82;100.00
31346;BME280;21711;49.708;18.568;2023-01-10T07:20:25;96905.66;;;4.74;100.00
31346;BME280;21711;49.708;18.568;2023-01-10T07:22:59;96909.81;;;4.93;100.00
31346;BME280;21711;49.708;18.568;2023-01-10T07:25:28;96902.00;;;4.98;100.00
31346;BME280;21711;49.708;18.568;2023-01-10T07:27:57;96903.78;;;4.92;100.00
31346;BME280;21711;49.708;18.568;2023-01-10T07:30:24;96904.03;;;4.91;100.00
31346;BME280;21711;49.708;18.568;2023-01-10T07:32:56;96898.66;;;5.03;100.00
31346;BME280;21711;49.708;18.568;2023-01-10T07:35:24;96905.25;;;4.83;100.00
31346;BME280;21711;49.708;18.568;2023-01-10T07:37:52;96910.44;;;5.00;100.00
31346;BME280;21711;49.708;18.568;2023-01-10T07:40:19;96911.66;;;4.92;100.00
31346;BME280;21711;49.708;18.568;2023-01-10T07:42:46;96922.19;;;4.97;100.00
31346;BME280;21711;49.708;18.568;2023-01-10T07:45:14;96930.88;;;5.03;100.00
31346;BME280;21711;49.708;18.568;2023-01-10T07:47:41;96931.16;;;5.02;100.00
31346;BME280;21711;49.708;18.568;2023-01-10T07:50:09;96930.06;;;4.97;100.00
31346;BME280;21711;49.708;18.568;2023-01-10T07:52:36;96937.41;;;5.00;100.00
31346;BME280;21711;49.708;18.568;2023-01-10T07:55:05;96941.56;;;5.19;100.00
31346;BME280;21711;49.708;18.568;2023-01-10T07:57:32;96944.53;;;5.28;100.00
31346;BME280;21711;49.708;18.568;2023-01-10T07:59:59;96953.31;;;5.38;100.00
31346;BME280;21711;49.708;18.568;2023-01-10T08:02:27;96947.69;;;5.30;100.00
31346;BME280;21711;49.708;18.568;2023-01-10T08:04:54;96946.91;;;5.29;100.00
31346;BME280;21711;49.708;18.568;2023-01-10T08:07:21;96937.09;;;5.19;100.00
31346;BME280;21711;49.708;18.568;2023-01-10T08:09:49;96943.91;;;5.43;100.00
31346;BME280;21711;49.708;18.568;2023-01-10T08:12:16;96946.16;;;5.34;100.00
31346;BME280;21711;49.708;18.568;2023-01-10T08:14:43;96939.44;;;5.16;100.00
31346;BME280;21711;49.708;18.568;2023-01-10T08:17:10;96938.81;;;5.08;100.00
31346;BME280;21711;49.708;18.568;2023-01-10T08:19:38;96949.84;;;5.10;100.00
31346;BME280;21711;49.708;18.568;2023-01-10T08:22:05;96952.66;;;5.04;100.00
31346;BME280;21711;49.708;18.568;2023-01-10T08:24:32;96961.34;;;4.87;100.00
31346;BME280;21711;49.708;18.568;2023-01-10T08:27:00;96959.28;;;4.89;100.00
31346;BME280;21711;49.708;18.568;2023-01-10T08:29:28;96951.91;;;4.86;100.00
31346;BME280;21711;49.708;18.568;2023-01-10T08:31:56;96958.50;;;4.89;100.00
31346;BME280;21711;49.708;18.568;2023-01-10T08:34:24;96981.44;;;4.98;100.00
31346;BME280;21711;49.708;18.568;2023-01-10T08:36:53;97006.59;;;4.99;100.00
31346;BME280;21711;49.708;18.568;2023-01-10T08:39:21;97021.09;;;5.07;100.00
31346;BME280;21711;49.708;18.568;2023-01-10T08:41:48;97018.25;;;5.09;100.00
31346;BME280;21711;49.708;18.568;2023-01-10T08:44:16;97016.72;;;5.13;100.00
31346;BME280;21711;49.708;18.568;2023-01-10T08:46:43;97029.97;;;5.23;100.00
31346;BME280;21711;49.708;18.568;2023-01-10T08:49:11;97014.41;;;5.17;100.00
31346;BME280;21711;49.708;18.568;2023-01-10T08:51:39;97022.94;;;5.07;100.00
31346;BME280;21711;49.708;18.568;2023-01-10T08:54:06;97025.13;;;5.15;100.00
31346;BME280;21711;49.708;18.568;2023-01-10T08:56:33;97034.09;;;5.19;100.00
31346;BME280;21711;49.708;18.568;2023-01-10T08:59:03;97046.22;;;5.03;100.00
31346;BME280;21711;49.708;18.568;2023-01-10T09:01:30;97047.72;;;5.16;100.00
31346;BME280;21711;49.708;18.568;2023-01-10T09:03:57;97052.22;;;5.21;100.00
31346;BME280;21711;49.708;18.568;2023-01-10T09:06:26;97056.84;;;5.13;100.00
31346;BME280;21711;49.708;18.568;2023-01-10T09:08:53;97075.09;;;5.25;100.00
31346;BME280;21711;49.708;18.568;2023-01-10T09:11:20;97070.41;;;5.28;100.00
31346;BME280;21711;49.708;18.568;2023-01-10T09:13:50;97070.28;;;5.17;100.00
31346;BME280;21711;49.708;18.568;2023-01-10T09:16:18;97067.78;;;5.28;100.00
31346;BME280;21711;49.708;18.568;2023-01-10T09:18:45;97077.09;;;5.18;100.00
31346;BME280;21711;49.708;18.568;2023-01-10T09:21:13;97084.66;;;5.15;100.00
31346;BME280;21711;49.708;18.568;2023-01-10T09:23:40;97090.75;;;5.20;100.00
31346;BME280;21711;49.708;18.568;2023-01-10T09:26:09;97097.81;;;5.20;100.00
31346;BME280;21711;49.708;18.568;2023-01-10T09:28:36;97092.78;;;5.35;100.00
31346;BME280;21711;49.708;18.568;2023-01-10T09:31:05;97095.13;;;5.15;100.00
31346;BME280;21711;49.708;18.568;2023-01-10T09:33:34;97096.09;;;5.08;100.00
31346;BME280;21711;49.708;18.568;2023-01-10T09:36:13;97102.09;;;5.26;100.00
31346;BME280;21711;49.708;18.568;2023-01-10T09:38:42;97098.84;;;5.36;100.00
31346;BME280;21711;49.708;18.568;2023-01-10T09:48:50;97106.63;;;5.31;100.00
31346;BME280;21711;49.708;18.568;2023-01-10T09:51:46;97117.94;;;5.14;100.00
31346;BME280;21711;49.708;18.568;2023-01-10T09:54:28;97118.22;;;5.18;100.00
31346;BME280;21711;49.708;18.568;2023-01-10T09:56:59;97121.13;;;5.16;100.00
31346;BME280;21711;49.708;18.568;2023-01-10T09:59:39;97119.97;;;5.29;100.00
31346;BME280;21711;49.708;18.568;2023-01-10T10:02:33;97120.41;;;5.04;100.00
31346;BME280;21711;49.708;18.568;2023-01-10T10:07:49;97117.34;;;5.29;100.00
31346;BME280;21711;49.708;18.568;2023-01-10T10:10:36;97118.84;;;5.42;100.00
31346;BME280;21711;49.708;18.568;2023-01-10T10:19:18;97126.50;;;4.75;100.00
31346;BME280;21711;49.708;18.568;2023-01-10T10:22:12;97139.00;;;5.02;100.00
31346;BME280;21711;49.708;18.568;2023-01-10T10:25:03;97142.41;;;5.03;100.00
31346;BME280;21711;49.708;18.568;2023-01-10T10:36:25;97152.66;;;5.04;100.00
31346;BME280;21711;49.708;18.568;2023-01-10T10:38:58;97154.56;;;5.09;100.00
31346;BME280;21711;49.708;18.568;2023-01-10T10:41:36;97163.47;;;5.08;100.00
31346;BME280;21711;49.708;18.568;2023-01-10T10:44:33;97165.50;;;5.06;100.00
31346;BME280;21711;49.708;18.568;2023-01-10T10:47:20;97172.81;;;5.04;100.00
31346;BME280;21711;49.708;18.568;2023-01-10T10:50:22;97179.97;;;5.25;100.00
31346;BME280;21711;49.708;18.568;2023-01-10T10:52:47;97181.97;;;5.18;100.00
31346;BME280;21711;49.708;18.568;2023-01-10T10:55:27;97183.00;;;4.83;100.00
31346;BME280;21711;49.708;18.568;2023-01-10T10:57:56;97178.59;;;4.89;100.00
31346;BME280;21711;49.708;18.568;2023-01-10T11:00:28;97190.28;;;4.98;100.00
31346;BME280;21711;49.708;18.568;2023-01-10T11:03:45;97185.94;;;5.04;100.00
31346;BME280;21711;49.708;18.568;2023-01-10T11:05:52;97183.31;;;5.04;100.00
31346;BME280;21711;49.708;18.568;2023-01-10T11:08:20;97196.81;;;5.12;100.00
31346;BME280;21711;49.708;18.568;2023-01-10T11:10:55;97190.22;;;5.27;100.00
31346;BME280;21711;49.708;18.568;2023-01-10T11:16:03;97202.53;;;5.09;100.00
31346;BME280;21711;49.708;18.568;2023-01-10T11:18:32;97201.44;;;5.22;100.00
31346;BME280;21711;49.708;18.568;2023-01-10T11:24:04;97217.84;;;5.18;100.00
31346;BME280;21711;49.708;18.568;2023-01-10T11:26:36;97212.75;;;4.94;100.00
31346;BME280;21711;49.708;18.568;2023-01-10T11:31:43;97212.28;;;4.97;100.00
31346;BME280;21711;49.708;18.568;2023-01-10T11:37:00;97221.81;;;5.03;100.00
31346;BME280;21711;49.708;18.568;2023-01-10T11:39:29;97226.53;;;5.01;100.00
31346;BME280;21711;49.708;18.568;2023-01-10T11:42:26;97226.00;;;4.87;100.00
31346;BME280;21711;49.708;18.568;2023-01-10T11:48:18;97229.81;;;4.79;100.00
31346;BME280;21711;49.708;18.568;2023-01-10T11:51:27;97235.81;;;4.92;100.00
31346;BME280;21711;49.708;18.568;2023-01-10T11:54:04;97229.63;;;4.69;100.00
31346;BME280;21711;49.708;18.568;2023-01-10T11:56:35;97241.91;;;4.80;100.00
31346;BME280;21711;49.708;18.568;2023-01-10T11:59:16;97244.47;;;4.92;100.00
31346;BME280;21711;49.708;18.568;2023-01-10T12:01:52;97252.13;;;5.11;100.00
31346;BME280;21711;49.708;18.568;2023-01-10T12:04:20;97258.56;;;5.37;100.00
31346;BME280;21711;49.708;18.568;2023-01-10T12:06:52;97261.16;;;5.20;100.00
31346;BME280;21711;49.708;18.568;2023-01-10T12:09:42;97254.63;;;5.06;100.00
31346;BME280;21711;49.708;18.568;2023-01-10T12:12:27;97262.50;;;5.06;100.00
31346;BME280;21711;49.708;18.568;2023-01-10T12:14:57;97262.84;;;5.09;100.00
31346;BME280;21711;49.708;18.568;2023-01-10T12:17:34;97268.16;;;5.15;100.00
31346;BME280;21711;49.708;18.568;2023-01-10T12:20:08;97268.91;;;4.98;100.00
31346;BME280;21711;49.708;18.568;2023-01-10T12:22:44;97270.22;;;5.12;100.00
31346;BME280;21711;49.708;18.568;2023-01-10T12:25:21;97272.59;;;5.14;100.00
31346;BME280;21711;49.708;18.568;2023-01-10T12:27:53;97279.03;;;5.23;100.00
31346;BME280;21711;49.708;18.568;2023-01-10T12:30:32;97282.56;;;5.29;100.00
31346;BME280;21711;49.708;18.568;2023-01-10T12:33:21;97279.78;;;5.19;100.00
31346;BME280;21711;49.708;18.568;2023-01-10T12:44:44;97295.34;;;5.25;100.00
31346;BME280;21711;49.708;18.568;2023-01-10T12:53:10;97300.19;;;5.34;100.00
31346;BME280;21711;49.708;18.568;2023-01-10T12:55:43;97294.41;;;5.32;100.00
31346;BME280;21711;49.708;18.568;2023-01-10T12:58:40;97294.94;;;5.34;100.00
31346;BME280;21711;49.708;18.568;2023-01-10T13:01:15;97291.38;;;5.40;100.00
31346;BME280;21711;49.708;18.568;2023-01-10T13:03:47;97296.63;;;5.57;100.00
31346;BME280;21711;49.708;18.568;2023-01-10T13:06:34;97294.56;;;5.59;100.00
31346;BME280;21711;49.708;18.568;2023-01-10T13:09:18;97300.19;;;5.34;100.00
31346;BME280;21711;49.708;18.568;2023-01-10T13:14:33;97316.88;;;5.45;100.00
31346;BME280;21711;49.708;18.568;2023-01-10T13:21:10;97327.97;;;5.47;100.00
31346;BME280;21711;49.708;18.568;2023-01-10T13:23:49;97333.19;;;5.47;100.00
31346;BME280;21711;49.708;18.568;2023-01-10T13:26:18;97324.59;;;5.34;100.00
31346;BME280;21711;49.708;18.568;2023-01-10T13:28:59;97342.88;;;5.46;100.00
31346;BME280;21711;49.708;18.568;2023-01-10T13:31:32;97346.22;;;5.42;100.00
31346;BME280;21711;49.708;18.568;2023-01-10T13:34:02;97348.28;;;5.39;100.00
31346;BME280;21711;49.708;18.568;2023-01-10T13:36:38;97353.75;;;5.38;100.00
31346;BME280;21711;49.708;18.568;2023-01-10T13:39:34;97351.94;;;5.38;100.00
31346;BME280;21711;49.708;18.568;2023-01-10T13:50:49;97357.56;;;5.30;100.00
31346;BME280;21711;49.708;18.568;2023-01-10T13:53:39;97362.59;;;5.49;100.00
31346;BME280;21711;49.708;18.568;2023-01-10T13:58:54;97370.00;;;5.35;100.00
31346;BME280;21711;49.708;18.568;2023-01-10T14:01:40;97374.25;;;5.24;100.00
31346;BME280;21711;49.708;18.568;2023-01-10T14:04:52;97380.66;;;5.16;100.00
31346;BME280;21711;49.708;18.568;2023-01-10T14:10:30;97392.84;;;5.22;100.00
31346;BME280;21711;49.708;18.568;2023-01-10T14:13:19;97387.78;;;5.33;100.00
31346;BME280;21711;49.708;18.568;2023-01-10T14:15:48;97392.63;;;5.41;100.00
31346;BME280;21711;49.708;18.568;2023-01-10T14:18:36;97388.63;;;5.21;100.00
31346;BME280;21711;49.708;18.568;2023-01-10T14:21:17;97386.09;;;5.26;100.00
31346;BME280;21711;49.708;18.568;2023-01-10T14:23:51;97393.88;;;5.21;100.00
31346;BME280;21711;49.708;18.568;2023-01-10T14:26:36;97389.97;;;5.24;100.00
31346;BME280;21711;49.708;18.568;2023-01-10T14:29:07;97383.59;;;4.91;100.00
31346;BME280;21711;49.708;18.568;2023-01-10T14:31:44;97400.75;;;5.10;100.00
31346;BME280;21711;49.708;18.568;2023-01-10T14:34:28;97397.84;;;5.24;100.00
31346;BME280;21711;49.708;18.568;2023-01-10T14:36:57;97408.25;;;5.19;100.00
31346;BME280;21711;49.708;18.568;2023-01-10T14:39:27;97410.19;;;5.11;100.00
31346;BME280;21711;49.708;18.568;2023-01-10T14:41:59;97415.00;;;5.03;100.00
31346;BME280;21711;49.708;18.568;2023-01-10T14:44:36;97405.84;;;5.17;100.00
31346;BME280;21711;49.708;18.568;2023-01-10T14:47:33;97410.78;;;5.13;100.00
31346;BME280;21711;49.708;18.568;2023-01-10T14:50:01;97410.50;;;5.15;100.00
31346;BME280;21711;49.708;18.568;2023-01-10T14:52:32;97419.50;;;5.19;100.00
31346;BME280;21711;49.708;18.568;2023-01-10T14:55:13;97427.41;;;5.07;100.00
31346;BME280;21711;49.708;18.568;2023-01-10T14:57:56;97426.16;;;5.10;100.00
31346;BME280;21711;49.708;18.568;2023-01-10T15:00:26;97416.34;;;5.17;100.00
31346;BME280;21711;49.708;18.568;2023-01-10T15:02:54;97415.47;;;5.29;100.00
31346;BME280;21711;49.708;18.568;2023-01-10T15:05:25;97418.41;;;5.03;100.00
31346;BME280;21711;49.708;18.568;2023-01-10T15:07:54;97418.63;;;5.13;100.00
31346;BME280;21711;49.708;18.568;2023-01-10T15:10:30;97433.47;;;5.08;100.00
31346;BME280;21711;49.708;18.568;2023-01-10T15:13:02;97423.88;;;5.13;100.00